Terminal Aerodrome Forecast
Issued by NWS

Home | Current Version | Previous Version | Graphics & Text | Print | Product List | Glossary On
Versions: 1 2 3 4 5 6 7 8 9 10 11 12 13 14 15 16 17
805
FTUS43 KOAX 281720
TAFCDR
TAF
KCDR 281720Z 2818/2918 05010KT P6SM BKN020
     FM290100 06008KT P6SM -DZ BKN007 OVC015
     FM290600 06005KT P6SM OVC003
     FM290900 06004KT 2SM -RASN OVC003=

USA.gov is the U.S. government's official web portal to all federal, state and local government web resources and services.